sensor_id;sensor_type;location;lat;lon;timestamp;P1;durP1;ratioP1;P2;durP2;ratioP2
18659;SDS011;9459;50.254;19.014;2023-05-08T00:00:57;4.32;;;3.30;;
18659;SDS011;9459;50.254;19.014;2023-05-08T00:03:25;4.20;;;3.65;;
18659;SDS011;9459;50.254;19.014;2023-05-08T00:05:54;6.35;;;3.50;;
18659;SDS011;9459;50.254;19.014;2023-05-08T00:08:23;5.05;;;3.10;;
18659;SDS011;9459;50.254;19.014;2023-05-08T00:10:52;5.22;;;3.22;;
18659;SDS011;9459;50.254;19.014;2023-05-08T00:13:20;5.47;;;3.15;;
18659;SDS011;9459;50.254;19.014;2023-05-08T00:15:49;3.75;;;3.28;;
18659;SDS011;9459;50.254;19.014;2023-05-08T00:18:19;4.40;;;2.80;;
18659;SDS011;9459;50.254;19.014;2023-05-08T00:20:48;3.08;;;2.60;;
18659;SDS011;9459;50.254;19.014;2023-05-08T00:23:17;4.22;;;2.75;;
18659;SDS011;9459;50.254;19.014;2023-05-08T00:25:48;5.88;;;2.53;;
18659;SDS011;9459;50.254;19.014;2023-05-08T00:28:16;3.63;;;2.55;;
18659;SDS011;9459;50.254;19.014;2023-05-08T00:30:45;2.95;;;2.35;;
18659;SDS011;9459;50.254;19.014;2023-05-08T00:33:13;4.72;;;2.67;;
18659;SDS011;9459;50.254;19.014;2023-05-08T00:35:43;5.50;;;2.50;;
18659;SDS011;9459;50.254;19.014;2023-05-08T00:38:12;2.28;;;2.03;;
18659;SDS011;9459;50.254;19.014;2023-05-08T00:40:41;3.45;;;2.88;;
18659;SDS011;9459;50.254;19.014;2023-05-08T00:43:10;3.15;;;2.60;;
18659;SDS011;9459;50.254;19.014;2023-05-08T00:45:38;4.47;;;2.60;;
18659;SDS011;9459;50.254;19.014;2023-05-08T00:48:07;2.97;;;2.45;;
18659;SDS011;9459;50.254;19.014;2023-05-08T00:50:36;2.67;;;2.28;;
18659;SDS011;9459;50.254;19.014;2023-05-08T00:53:05;3.55;;;2.33;;
18659;SDS011;9459;50.254;19.014;2023-05-08T00:55:34;3.03;;;2.28;;
18659;SDS011;9459;50.254;19.014;2023-05-08T00:58:03;2.20;;;1.73;;
18659;SDS011;9459;50.254;19.014;2023-05-08T01:00:31;3.22;;;1.42;;
18659;SDS011;9459;50.254;19.014;2023-05-08T01:03:00;1.85;;;1.67;;
18659;SDS011;9459;50.254;19.014;2023-05-08T01:05:29;2.35;;;1.90;;
18659;SDS011;9459;50.254;19.014;2023-05-08T01:07:58;4.47;;;1.58;;
18659;SDS011;9459;50.254;19.014;2023-05-08T01:10:29;1.98;;;1.75;;
18659;SDS011;9459;50.254;19.014;2023-05-08T01:13:04;2.20;;;1.40;;
18659;SDS011;9459;50.254;19.014;2023-05-08T01:15:40;3.22;;;1.45;;
18659;SDS011;9459;50.254;19.014;2023-05-08T01:18:12;2.78;;;1.88;;
18659;SDS011;9459;50.254;19.014;2023-05-08T01:20:44;3.05;;;1.70;;
18659;SDS011;9459;50.254;19.014;2023-05-08T01:29:58;1.60;;;1.50;;
18659;SDS011;9459;50.254;19.014;2023-05-08T01:32:46;2.28;;;1.63;;
18659;SDS011;9459;50.254;19.014;2023-05-08T01:35:20;2.33;;;2.13;;
18659;SDS011;9459;50.254;19.014;2023-05-08T01:37:53;2.40;;;1.50;;
18659;SDS011;9459;50.254;19.014;2023-05-08T01:40:27;2.38;;;2.10;;
18659;SDS011;9459;50.254;19.014;2023-05-08T01:45:49;2.67;;;2.15;;
18659;SDS011;9459;50.254;19.014;2023-05-08T01:48:21;3.15;;;2.65;;
18659;SDS011;9459;50.254;19.014;2023-05-08T01:50:54;2.22;;;1.77;;
18659;SDS011;9459;50.254;19.014;2023-05-08T01:53:27;3.85;;;2.05;;
18659;SDS011;9459;50.254;19.014;2023-05-08T01:55:58;4.20;;;2.55;;
18659;SDS011;9459;50.254;19.014;2023-05-08T01:58:28;2.78;;;2.42;;
18659;SDS011;9459;50.254;19.014;2023-05-08T02:00:58;4.30;;;2.67;;
18659;SDS011;9459;50.254;19.014;2023-05-08T02:03:28;3.75;;;2.70;;
18659;SDS011;9459;50.254;19.014;2023-05-08T02:05:58;3.30;;;2.67;;
18659;SDS011;9459;50.254;19.014;2023-05-08T02:08:28;4.13;;;3.03;;
18659;SDS011;9459;50.254;19.014;2023-05-08T02:10:57;4.20;;;3.13;;
18659;SDS011;9459;50.254;19.014;2023-05-08T02:13:26;4.55;;;2.80;;
18659;SDS011;9459;50.254;19.014;2023-05-08T02:15:56;3.67;;;2.83;;
18659;SDS011;9459;50.254;19.014;2023-05-08T02:18:26;3.73;;;2.90;;
18659;SDS011;9459;50.254;19.014;2023-05-08T02:20:58;4.78;;;3.10;;
18659;SDS011;9459;50.254;19.014;2023-05-08T02:23:28;3.40;;;2.83;;
18659;SDS011;9459;50.254;19.014;2023-05-08T02:25:57;3.28;;;2.97;;
18659;SDS011;9459;50.254;19.014;2023-05-08T02:28:27;3.53;;;3.08;;
18659;SDS011;9459;50.254;19.014;2023-05-08T02:30:56;4.32;;;3.08;;
18659;SDS011;9459;50.254;19.014;2023-05-08T02:33:26;5.65;;;3.00;;
18659;SDS011;9459;50.254;19.014;2023-05-08T02:35:56;5.10;;;3.20;;
18659;SDS011;9459;50.254;19.014;2023-05-08T02:38:25;5.07;;;2.88;;
18659;SDS011;9459;50.254;19.014;2023-05-08T02:40:54;4.43;;;3.25;;
18659;SDS011;9459;50.254;19.014;2023-05-08T02:43:24;3.70;;;3.05;;
18659;SDS011;9459;50.254;19.014;2023-05-08T02:46:02;4.53;;;3.58;;
18659;SDS011;9459;50.254;19.014;2023-05-08T02:48:40;6.40;;;3.20;;
18659;SDS011;9459;50.254;19.014;2023-05-08T02:51:17;4.28;;;3.28;;
18659;SDS011;9459;50.254;19.014;2023-05-08T02:53:49;4.95;;;3.22;;
18659;SDS011;9459;50.254;19.014;2023-05-08T02:56:21;6.60;;;3.30;;
18659;SDS011;9459;50.254;19.014;2023-05-08T02:59:00;3.97;;;3.30;;
18659;SDS011;9459;50.254;19.014;2023-05-08T03:01:40;4.07;;;3.60;;
18659;SDS011;9459;50.254;19.014;2023-05-08T03:04:13;3.92;;;3.35;;
18659;SDS011;9459;50.254;19.014;2023-05-08T03:06:50;3.40;;;2.90;;
18659;SDS011;9459;50.254;19.014;2023-05-08T03:09:20;4.53;;;3.38;;
18659;SDS011;9459;50.254;19.014;2023-05-08T03:11:52;4.43;;;3.35;;
18659;SDS011;9459;50.254;19.014;2023-05-08T03:14:27;4.32;;;3.47;;
18659;SDS011;9459;50.254;19.014;2023-05-08T03:16:55;5.97;;;3.60;;
18659;SDS011;9459;50.254;19.014;2023-05-08T03:19:28;3.88;;;3.03;;
18659;SDS011;9459;50.254;19.014;2023-05-08T03:22:01;4.65;;;3.65;;
18659;SDS011;9459;50.254;19.014;2023-05-08T03:24:30;5.90;;;3.47;;
18659;SDS011;9459;50.254;19.014;2023-05-08T03:27:02;5.47;;;3.03;;
18659;SDS011;9459;50.254;19.014;2023-05-08T03:29:31;7.47;;;2.83;;
18659;SDS011;9459;50.254;19.014;2023-05-08T03:32:00;4.13;;;3.72;;
18659;SDS011;9459;50.254;19.014;2023-05-08T03:34:30;4.03;;;2.97;;
18659;SDS011;9459;50.254;19.014;2023-05-08T03:37:00;3.20;;;2.72;;
18659;SDS011;9459;50.254;19.014;2023-05-08T03:39:29;4.45;;;3.22;;
18659;SDS011;9459;50.254;19.014;2023-05-08T03:41:58;6.20;;;3.53;;
18659;SDS011;9459;50.254;19.014;2023-05-08T03:44:27;3.85;;;3.00;;
18659;SDS011;9459;50.254;19.014;2023-05-08T03:46:57;3.83;;;3.30;;
18659;SDS011;9459;50.254;19.014;2023-05-08T03:49:25;4.90;;;3.75;;
18659;SDS011;9459;50.254;19.014;2023-05-08T03:51:56;4.85;;;3.78;;
18659;SDS011;9459;50.254;19.014;2023-05-08T03:54:26;4.00;;;3.42;;
18659;SDS011;9459;50.254;19.014;2023-05-08T03:56:56;5.05;;;4.00;;
18659;SDS011;9459;50.254;19.014;2023-05-08T03:59:27;7.38;;;4.28;;
18659;SDS011;9459;50.254;19.014;2023-05-08T04:01:59;4.95;;;4.13;;
18659;SDS011;9459;50.254;19.014;2023-05-08T04:04:37;5.72;;;4.63;;
18659;SDS011;9459;50.254;19.014;2023-05-08T04:07:07;4.88;;;3.70;;
18659;SDS011;9459;50.254;19.014;2023-05-08T04:09:42;6.28;;;4.07;;
18659;SDS011;9459;50.254;19.014;2023-05-08T04:12:13;5.35;;;4.00;;
18659;SDS011;9459;50.254;19.014;2023-05-08T04:14:44;3.85;;;3.42;;
18659;SDS011;9459;50.254;19.014;2023-05-08T04:17:16;5.35;;;3.83;;
18659;SDS011;9459;50.254;19.014;2023-05-08T04:19:51;4.95;;;3.90;;
18659;SDS011;9459;50.254;19.014;2023-05-08T04:22:25;6.82;;;3.97;;
18659;SDS011;9459;50.254;19.014;2023-05-08T04:24:56;4.40;;;3.47;;
18659;SDS011;9459;50.254;19.014;2023-05-08T04:29:54;3.60;;;3.25;;
18659;SDS011;9459;50.254;19.014;2023-05-08T04:32:23;4.00;;;3.08;;
18659;SDS011;9459;50.254;19.014;2023-05-08T04:34:53;5.47;;;3.53;;
18659;SDS011;9459;50.254;19.014;2023-05-08T04:37:25;3.50;;;3.10;;
18659;SDS011;9459;50.254;19.014;2023-05-08T04:39:56;4.13;;;3.58;;
18659;SDS011;9459;50.254;19.014;2023-05-08T04:42:25;5.05;;;3.65;;
18659;SDS011;9459;50.254;19.014;2023-05-08T04:44:54;4.50;;;3.45;;
18659;SDS011;9459;50.254;19.014;2023-05-08T04:47:23;4.20;;;3.72;;
18659;SDS011;9459;50.254;19.014;2023-05-08T04:49:51;5.00;;;3.58;;
18659;SDS011;9459;50.254;19.014;2023-05-08T04:52:20;4.93;;;3.80;;
18659;SDS011;9459;50.254;19.014;2023-05-08T04:54:48;4.20;;;3.00;;
18659;SDS011;9459;50.254;19.014;2023-05-08T04:57:18;5.20;;;3.45;;
18659;SDS011;9459;50.254;19.014;2023-05-08T04:59:47;4.60;;;3.13;;
18659;SDS011;9459;50.254;19.014;2023-05-08T05:02:15;3.97;;;3.05;;
18659;SDS011;9459;50.254;19.014;2023-05-08T05:04:44;4.57;;;2.85;;
18659;SDS011;9459;50.254;19.014;2023-05-08T05:07:12;4.10;;;2.45;;
18659;SDS011;9459;50.254;19.014;2023-05-08T05:09:41;3.35;;;2.55;;
18659;SDS011;9459;50.254;19.014;2023-05-08T05:12:11;3.55;;;2.78;;
18659;SDS011;9459;50.254;19.014;2023-05-08T05:14:41;6.80;;;3.05;;
18659;SDS011;9459;50.254;19.014;2023-05-08T05:17:09;3.40;;;2.55;;
18659;SDS011;9459;50.254;19.014;2023-05-08T05:19:38;3.60;;;2.63;;
18659;SDS011;9459;50.254;19.014;2023-05-08T05:22:06;5.10;;;2.67;;
18659;SDS011;9459;50.254;19.014;2023-05-08T05:24:35;4.15;;;3.05;;
18659;SDS011;9459;50.254;19.014;2023-05-08T05:27:05;4.20;;;3.13;;
18659;SDS011;9459;50.254;19.014;2023-05-08T05:29:34;4.03;;;3.05;;
18659;SDS011;9459;50.254;19.014;2023-05-08T05:32:04;3.75;;;2.72;;
18659;SDS011;9459;50.254;19.014;2023-05-08T05:34:33;6.18;;;2.90;;
18659;SDS011;9459;50.254;19.014;2023-05-08T05:37:02;3.53;;;3.00;;
18659;SDS011;9459;50.254;19.014;2023-05-08T05:39:31;6.05;;;3.17;;
18659;SDS011;9459;50.254;19.014;2023-05-08T05:41:59;3.95;;;3.58;;
18659;SDS011;9459;50.254;19.014;2023-05-08T05:44:28;4.45;;;3.00;;
18659;SDS011;9459;50.254;19.014;2023-05-08T05:46:56;3.83;;;3.15;;
18659;SDS011;9459;50.254;19.014;2023-05-08T05:49:26;4.65;;;3.20;;
18659;SDS011;9459;50.254;19.014;2023-05-08T05:51:55;3.53;;;2.80;;
18659;SDS011;9459;50.254;19.014;2023-05-08T05:54:23;4.97;;;2.63;;
18659;SDS011;9459;50.254;19.014;2023-05-08T05:56:52;3.70;;;2.70;;
18659;SDS011;9459;50.254;19.014;2023-05-08T05:59:20;5.90;;;2.83;;
18659;SDS011;9459;50.254;19.014;2023-05-08T06:01:49;4.07;;;3.08;;
18659;SDS011;9459;50.254;19.014;2023-05-08T06:04:18;3.58;;;2.60;;
18659;SDS011;9459;50.254;19.014;2023-05-08T06:06:48;3.92;;;2.88;;
18659;SDS011;9459;50.254;19.014;2023-05-08T06:09:17;3.53;;;3.03;;
18659;SDS011;9459;50.254;19.014;2023-05-08T06:11:46;6.50;;;3.72;;
18659;SDS011;9459;50.254;19.014;2023-05-08T06:14:14;6.15;;;3.65;;
18659;SDS011;9459;50.254;19.014;2023-05-08T06:16:43;5.72;;;3.45;;
18659;SDS011;9459;50.254;19.014;2023-05-08T06:19:11;6.18;;;3.97;;
18659;SDS011;9459;50.254;19.014;2023-05-08T06:21:40;4.93;;;3.92;;
18659;SDS011;9459;50.254;19.014;2023-05-08T06:24:10;4.35;;;3.53;;
18659;SDS011;9459;50.254;19.014;2023-05-08T06:26:38;7.13;;;4.57;;
18659;SDS011;9459;50.254;19.014;2023-05-08T06:29:07;5.72;;;4.10;;
18659;SDS011;9459;50.254;19.014;2023-05-08T06:31:37;8.80;;;4.05;;
18659;SDS011;9459;50.254;19.014;2023-05-08T06:34:05;7.28;;;4.40;;
18659;SDS011;9459;50.254;19.014;2023-05-08T06:36:34;4.28;;;3.22;;
18659;SDS011;9459;50.254;19.014;2023-05-08T06:39:03;7.30;;;4.03;;
18659;SDS011;9459;50.254;19.014;2023-05-08T06:41:33;8.02;;;4.30;;
18659;SDS011;9459;50.254;19.014;2023-05-08T06:44:02;5.22;;;3.95;;
18659;SDS011;9459;50.254;19.014;2023-05-08T06:46:30;5.85;;;4.53;;
18659;SDS011;9459;50.254;19.014;2023-05-08T06:48:59;5.68;;;4.68;;
18659;SDS011;9459;50.254;19.014;2023-05-08T06:51:27;6.70;;;4.25;;
18659;SDS011;9459;50.254;19.014;2023-05-08T06:53:57;8.18;;;4.78;;
18659;SDS011;9459;50.254;19.014;2023-05-08T06:56:26;6.32;;;4.72;;
18659;SDS011;9459;50.254;19.014;2023-05-08T06:58:55;7.22;;;4.28;;
18659;SDS011;9459;50.254;19.014;2023-05-08T07:01:34;7.43;;;4.60;;
18659;SDS011;9459;50.254;19.014;2023-05-08T07:04:04;8.75;;;4.28;;
18659;SDS011;9459;50.254;19.014;2023-05-08T07:06:32;5.47;;;4.38;;
18659;SDS011;9459;50.254;19.014;2023-05-08T07:09:01;7.20;;;4.30;;
18659;SDS011;9459;50.254;19.014;2023-05-08T07:11:32;4.93;;;3.58;;
18659;SDS011;9459;50.254;19.014;2023-05-08T07:14:02;5.40;;;3.97;;
18659;SDS011;9459;50.254;19.014;2023-05-08T07:16:31;6.13;;;3.88;;
18659;SDS011;9459;50.254;19.014;2023-05-08T07:18:59;7.78;;;4.00;;
18659;SDS011;9459;50.254;19.014;2023-05-08T07:21:28;5.78;;;3.63;;
18659;SDS011;9459;50.254;19.014;2023-05-08T07:23:56;5.00;;;3.80;;
18659;SDS011;9459;50.254;19.014;2023-05-08T07:26:25;5.50;;;3.80;;
18659;SDS011;9459;50.254;19.014;2023-05-08T07:28:53;6.35;;;3.70;;
18659;SDS011;9459;50.254;19.014;2023-05-08T07:31:23;5.28;;;3.30;;
18659;SDS011;9459;50.254;19.014;2023-05-08T07:33:52;4.90;;;3.30;;
18659;SDS011;9459;50.254;19.014;2023-05-08T07:36:20;5.10;;;2.88;;
18659;SDS011;9459;50.254;19.014;2023-05-08T07:38:49;4.45;;;2.78;;
18659;SDS011;9459;50.254;19.014;2023-05-08T07:41:18;3.70;;;3.08;;
18659;SDS011;9459;50.254;19.014;2023-05-08T07:43:46;3.90;;;3.50;;
18659;SDS011;9459;50.254;19.014;2023-05-08T07:46:15;4.07;;;3.25;;
18659;SDS011;9459;50.254;19.014;2023-05-08T07:48:45;4.65;;;2.97;;
18659;SDS011;9459;50.254;19.014;2023-05-08T07:51:13;5.47;;;3.22;;
18659;SDS011;9459;50.254;19.014;2023-05-08T07:53:42;4.93;;;3.95;;
18659;SDS011;9459;50.254;19.014;2023-05-08T07:56:11;5.90;;;2.97;;
18659;SDS011;9459;50.254;19.014;2023-05-08T07:58:39;5.18;;;3.67;;
18659;SDS011;9459;50.254;19.014;2023-05-08T08:01:08;6.38;;;3.35;;
18659;SDS011;9459;50.254;19.014;2023-05-08T08:03:37;3.90;;;3.03;;
18659;SDS011;9459;50.254;19.014;2023-05-08T08:06:09;6.72;;;2.40;;
18659;SDS011;9459;50.254;19.014;2023-05-08T08:08:37;3.30;;;2.70;;
18659;SDS011;9459;50.254;19.014;2023-05-08T08:11:06;4.13;;;2.35;;
18659;SDS011;9459;50.254;19.014;2023-05-08T08:13:35;4.50;;;2.58;;
18659;SDS011;9459;50.254;19.014;2023-05-08T08:16:03;4.13;;;2.92;;
18659;SDS011;9459;50.254;19.014;2023-05-08T08:18:33;2.80;;;2.15;;
18659;SDS011;9459;50.254;19.014;2023-05-08T08:21:05;4.47;;;3.03;;
18659;SDS011;9459;50.254;19.014;2023-05-08T08:23:36;3.05;;;2.75;;
18659;SDS011;9459;50.254;19.014;2023-05-08T08:26:04;3.45;;;2.75;;
18659;SDS011;9459;50.254;19.014;2023-05-08T08:28:33;8.00;;;3.05;;
18659;SDS011;9459;50.254;19.014;2023-05-08T08:31:01;3.55;;;2.80;;
18659;SDS011;9459;50.254;19.014;2023-05-08T08:33:30;4.30;;;2.83;;
18659;SDS011;9459;50.254;19.014;2023-05-08T08:35:58;6.13;;;3.30;;
18659;SDS011;9459;50.254;19.014;2023-05-08T08:38:27;4.78;;;3.00;;
18659;SDS011;9459;50.254;19.014;2023-05-08T08:40:57;3.15;;;2.80;;
18659;SDS011;9459;50.254;19.014;2023-05-08T08:43:25;5.70;;;2.78;;
18659;SDS011;9459;50.254;19.014;2023-05-08T08:45:54;5.45;;;2.58;;
18659;SDS011;9459;50.254;19.014;2023-05-08T08:48:25;4.43;;;2.80;;
18659;SDS011;9459;50.254;19.014;2023-05-08T08:50:57;2.72;;;2.45;;
18659;SDS011;9459;50.254;19.014;2023-05-08T08:53:29;4.78;;;2.88;;
18659;SDS011;9459;50.254;19.014;2023-05-08T08:56:05;4.93;;;2.90;;
18659;SDS011;9459;50.254;19.014;2023-05-08T08:58:35;7.53;;;3.25;;
18659;SDS011;9459;50.254;19.014;2023-05-08T09:01:06;4.13;;;2.92;;
18659;SDS011;9459;50.254;19.014;2023-05-08T09:03:35;3.40;;;2.85;;
18659;SDS011;9459;50.254;19.014;2023-05-08T09:06:04;5.88;;;3.10;;
18659;SDS011;9459;50.254;19.014;2023-05-08T09:08:33;6.28;;;3.63;;
18659;SDS011;9459;50.254;19.014;2023-05-08T09:11:02;6.25;;;3.28;;
18659;SDS011;9459;50.254;19.014;2023-05-08T09:13:32;3.92;;;3.10;;
18659;SDS011;9459;50.254;19.014;2023-05-08T09:16:00;4.97;;;3.30;;
18659;SDS011;9459;50.254;19.014;2023-05-08T09:18:29;4.30;;;3.30;;
18659;SDS011;9459;50.254;19.014;2023-05-08T09:20:57;5.25;;;3.20;;
18659;SDS011;9459;50.254;19.014;2023-05-08T09:23:27;5.53;;;2.70;;
18659;SDS011;9459;50.254;19.014;2023-05-08T09:25:56;3.30;;;2.80;;
18659;SDS011;9459;50.254;19.014;2023-05-08T09:28:25;4.93;;;2.88;;
18659;SDS011;9459;50.254;19.014;2023-05-08T09:30:55;4.68;;;3.47;;
18659;SDS011;9459;50.254;19.014;2023-05-08T09:33:25;4.90;;;3.15;;
18659;SDS011;9459;50.254;19.014;2023-05-08T09:35:55;5.32;;;3.03;;
18659;SDS011;9459;50.254;19.014;2023-05-08T09:38:34;4.25;;;2.50;;
18659;SDS011;9459;50.254;19.014;2023-05-08T09:41:07;6.38;;;2.45;;
18659;SDS011;9459;50.254;19.014;2023-05-08T09:43:37;2.67;;;2.30;;
18659;SDS011;9459;50.254;19.014;2023-05-08T09:46:19;3.35;;;2.20;;
18659;SDS011;9459;50.254;19.014;2023-05-08T09:48:50;5.85;;;3.05;;
18659;SDS011;9459;50.254;19.014;2023-05-08T09:51:19;3.33;;;3.03;;
18659;SDS011;9459;50.254;19.014;2023-05-08T09:53:48;3.85;;;2.88;;
18659;SDS011;9459;50.254;19.014;2023-05-08T09:56:28;5.90;;;2.35;;
18659;SDS011;9459;50.254;19.014;2023-05-08T10:01:31;4.70;;;2.17;;
18659;SDS011;9459;50.254;19.014;2023-05-08T10:04:01;6.72;;;2.30;;
18659;SDS011;9459;50.254;19.014;2023-05-08T10:06:32;5.50;;;2.35;;
18659;SDS011;9459;50.254;19.014;2023-05-08T10:09:05;3.45;;;2.10;;
18659;SDS011;9459;50.254;19.014;2023-05-08T10:11:38;2.95;;;2.20;;
18659;SDS011;9459;50.254;19.014;2023-05-08T10:14:07;3.72;;;2.47;;
18659;SDS011;9459;50.254;19.014;2023-05-08T10:16:42;3.42;;;2.33;;
18659;SDS011;9459;50.254;19.014;2023-05-08T10:19:12;7.85;;;2.90;;
18659;SDS011;9459;50.254;19.014;2023-05-08T10:21:44;4.13;;;2.83;;
18659;SDS011;9459;50.254;19.014;2023-05-08T10:24:14;6.28;;;2.90;;
18659;SDS011;9459;50.254;19.014;2023-05-08T10:26:50;10.27;;;5.05;;
18659;SDS011;9459;50.254;19.014;2023-05-08T10:29:33;10.88;;;5.38;;
18659;SDS011;9459;50.254;19.014;2023-05-08T10:32:10;4.32;;;2.15;;
18659;SDS011;9459;50.254;19.014;2023-05-08T10:37:08;4.38;;;2.70;;
18659;SDS011;9459;50.254;19.014;2023-05-08T10:39:37;6.38;;;2.35;;
18659;SDS011;9459;50.254;19.014;2023-05-08T10:42:06;7.07;;;2.00;;
18659;SDS011;9459;50.254;19.014;2023-05-08T10:44:34;2.63;;;1.90;;
18659;SDS011;9459;50.254;19.014;2023-05-08T10:47:04;4.68;;;2.08;;
18659;SDS011;9459;50.254;19.014;2023-05-08T10:49:39;3.55;;;2.38;;
18659;SDS011;9459;50.254;19.014;2023-05-08T10:52:15;3.63;;;2.15;;
18659;SDS011;9459;50.254;19.014;2023-05-08T10:55:02;12.05;;;1.90;;
18659;SDS011;9459;50.254;19.014;2023-05-08T10:58:02;4.85;;;2.05;;
18659;SDS011;9459;50.254;19.014;2023-05-08T11:00:33;4.40;;;2.10;;
18659;SDS011;9459;50.254;19.014;2023-05-08T11:03:39;3.90;;;2.38;;
18659;SDS011;9459;50.254;19.014;2023-05-08T11:08:47;4.05;;;2.10;;
18659;SDS011;9459;50.254;19.014;2023-05-08T11:11:24;5.47;;;2.40;;
18659;SDS011;9459;50.254;19.014;2023-05-08T11:13:57;3.65;;;2.60;;
18659;SDS011;9459;50.254;19.014;2023-05-08T11:19:30;4.13;;;2.83;;
18659;SDS011;9459;50.254;19.014;2023-05-08T11:22:13;6.65;;;3.08;;
18659;SDS011;9459;50.254;19.014;2023-05-08T11:24:52;5.50;;;2.90;;
18659;SDS011;9459;50.254;19.014;2023-05-08T11:27:39;5.32;;;2.40;;
18659;SDS011;9459;50.254;19.014;2023-05-08T11:30:32;10.70;;;3.10;;
18659;SDS011;9459;50.254;19.014;2023-05-08T11:35:56;4.65;;;2.70;;
18659;SDS011;9459;50.254;19.014;2023-05-08T11:38:28;3.85;;;2.63;;
18659;SDS011;9459;50.254;19.014;2023-05-08T11:40:58;5.22;;;2.78;;
18659;SDS011;9459;50.254;19.014;2023-05-08T11:43:36;3.05;;;2.25;;
18659;SDS011;9459;50.254;19.014;2023-05-08T11:46:30;6.30;;;2.40;;
18659;SDS011;9459;50.254;19.014;2023-05-08T11:49:09;5.65;;;3.00;;
18659;SDS011;9459;50.254;19.014;2023-05-08T11:51:40;3.47;;;2.03;;
18659;SDS011;9459;50.254;19.014;2023-05-08T11:54:13;4.03;;;2.10;;
18659;SDS011;9459;50.254;19.014;2023-05-08T11:56:44;3.40;;;2.15;;
18659;SDS011;9459;50.254;19.014;2023-05-08T12:01:42;3.03;;;2.05;;
18659;SDS011;9459;50.254;19.014;2023-05-08T12:04:19;3.83;;;2.05;;
18659;SDS011;9459;50.254;19.014;2023-05-08T12:06:48;7.05;;;2.00;;
18659;SDS011;9459;50.254;19.014;2023-05-08T12:09:19;3.25;;;1.98;;
18659;SDS011;9459;50.254;19.014;2023-05-08T12:11:50;10.93;;;2.08;;
18659;SDS011;9459;50.254;19.014;2023-05-08T12:14:24;5.85;;;2.03;;
18659;SDS011;9459;50.254;19.014;2023-05-08T12:16:52;3.80;;;2.20;;
18659;SDS011;9459;50.254;19.014;2023-05-08T12:19:21;3.05;;;2.50;;
18659;SDS011;9459;50.254;19.014;2023-05-08T12:21:49;3.58;;;2.22;;
18659;SDS011;9459;50.254;19.014;2023-05-08T12:24:20;5.63;;;2.40;;
18659;SDS011;9459;50.254;19.014;2023-05-08T12:26:52;4.10;;;2.40;;
18659;SDS011;9459;50.254;19.014;2023-05-08T12:29:21;7.25;;;4.07;;
18659;SDS011;9459;50.254;19.014;2023-05-08T12:31:50;5.55;;;3.30;;
18659;SDS011;9459;50.254;19.014;2023-05-08T12:34:20;7.22;;;3.38;;
18659;SDS011;9459;50.254;19.014;2023-05-08T12:36:48;3.53;;;2.15;;
18659;SDS011;9459;50.254;19.014;2023-05-08T12:39:34;3.93;;;2.53;;
18659;SDS011;9459;50.254;19.014;2023-05-08T12:42:03;3.38;;;1.80;;
18659;SDS011;9459;50.254;19.014;2023-05-08T12:44:32;4.13;;;1.95;;
18659;SDS011;9459;50.254;19.014;2023-05-08T12:47:00;4.20;;;1.77;;
18659;SDS011;9459;50.254;19.014;2023-05-08T12:49:29;3.58;;;2.08;;
18659;SDS011;9459;50.254;19.014;2023-05-08T12:52:05;2.25;;;1.70;;
18659;SDS011;9459;50.254;19.014;2023-05-08T12:54:38;3.40;;;1.95;;
18659;SDS011;9459;50.254;19.014;2023-05-08T12:57:08;2.72;;;1.90;;
18659;SDS011;9459;50.254;19.014;2023-05-08T12:59:38;2.22;;;1.95;;
18659;SDS011;9459;50.254;19.014;2023-05-08T13:02:13;6.57;;;2.03;;
18659;SDS011;9459;50.254;19.014;2023-05-08T13:04:42;4.35;;;2.30;;
18659;SDS011;9459;50.254;19.014;2023-05-08T13:07:11;5.45;;;1.63;;
18659;SDS011;9459;50.254;19.014;2023-05-08T13:12:25;4.78;;;1.90;;
18659;SDS011;9459;50.254;19.014;2023-05-08T13:14:54;3.60;;;1.88;;
18659;SDS011;9459;50.254;19.014;2023-05-08T13:17:22;7.50;;;1.98;;
18659;SDS011;9459;50.254;19.014;2023-05-08T13:19:51;5.40;;;2.47;;
18659;SDS011;9459;50.254;19.014;2023-05-08T13:22:19;5.13;;;2.33;;
18659;SDS011;9459;50.254;19.014;2023-05-08T13:24:52;4.57;;;2.75;;
18659;SDS011;9459;50.254;19.014;2023-05-08T13:27:22;2.67;;;1.98;;
18659;SDS011;9459;50.254;19.014;2023-05-08T13:29:50;7.38;;;2.40;;
18659;SDS011;9459;50.254;19.014;2023-05-08T13:32:19;4.05;;;1.88;;
18659;SDS011;9459;50.254;19.014;2023-05-08T13:34:48;2.13;;;1.30;;
18659;SDS011;9459;50.254;19.014;2023-05-08T13:37:20;2.33;;;1.58;;
18659;SDS011;9459;50.254;19.014;2023-05-08T13:39:49;3.15;;;1.42;;
18659;SDS011;9459;50.254;19.014;2023-05-08T13:42:17;5.30;;;1.80;;
18659;SDS011;9459;50.254;19.014;2023-05-08T13:44:47;5.03;;;1.52;;
18659;SDS011;9459;50.254;19.014;2023-05-08T13:47:16;3.50;;;1.70;;
18659;SDS011;9459;50.254;19.014;2023-05-08T13:49:44;3.22;;;1.65;;
18659;SDS011;9459;50.254;19.014;2023-05-08T13:52:13;2.17;;;1.27;;
18659;SDS011;9459;50.254;19.014;2023-05-08T13:54:42;2.72;;;1.60;;
18659;SDS011;9459;50.254;19.014;2023-05-08T13:57:11;3.88;;;2.10;;
18659;SDS011;9459;50.254;19.014;2023-05-08T13:59:39;3.35;;;2.30;;
18659;SDS011;9459;50.254;19.014;2023-05-08T14:02:09;5.10;;;2.78;;
18659;SDS011;9459;50.254;19.014;2023-05-08T14:04:38;5.57;;;2.97;;
18659;SDS011;9459;50.254;19.014;2023-05-08T14:07:06;3.97;;;2.30;;
18659;SDS011;9459;50.254;19.014;2023-05-08T14:09:36;3.83;;;2.60;;
18659;SDS011;9459;50.254;19.014;2023-05-08T14:12:04;5.07;;;1.88;;
18659;SDS011;9459;50.254;19.014;2023-05-08T14:14:33;3.58;;;1.95;;
18659;SDS011;9459;50.254;19.014;2023-05-08T14:17:02;4.28;;;1.48;;
18659;SDS011;9459;50.254;19.014;2023-05-08T14:19:33;3.65;;;2.15;;
18659;SDS011;9459;50.254;19.014;2023-05-08T14:22:01;3.20;;;2.05;;
18659;SDS011;9459;50.254;19.014;2023-05-08T14:24:30;4.53;;;2.58;;
18659;SDS011;9459;50.254;19.014;2023-05-08T14:26:59;4.90;;;2.28;;
18659;SDS011;9459;50.254;19.014;2023-05-08T14:29:32;13.93;;;4.68;;
18659;SDS011;9459;50.254;19.014;2023-05-08T14:32:00;6.65;;;3.60;;
18659;SDS011;9459;50.254;19.014;2023-05-08T14:34:29;4.13;;;2.60;;
18659;SDS011;9459;50.254;19.014;2023-05-08T14:36:59;3.45;;;2.53;;
18659;SDS011;9459;50.254;19.014;2023-05-08T14:39:28;5.30;;;2.30;;
18659;SDS011;9459;50.254;19.014;2023-05-08T14:41:57;5.53;;;2.53;;
18659;SDS011;9459;50.254;19.014;2023-05-08T14:44:31;4.50;;;2.03;;
18659;SDS011;9459;50.254;19.014;2023-05-08T14:46:59;2.08;;;1.88;;
18659;SDS011;9459;50.254;19.014;2023-05-08T14:49:28;5.00;;;1.70;;
18659;SDS011;9459;50.254;19.014;2023-05-08T14:52:05;2.03;;;1.77;;
18659;SDS011;9459;50.254;19.014;2023-05-08T14:54:34;2.55;;;1.70;;
18659;SDS011;9459;50.254;19.014;2023-05-08T14:57:03;3.35;;;1.77;;
18659;SDS011;9459;50.254;19.014;2023-05-08T14:59:32;3.13;;;1.60;;
18659;SDS011;9459;50.254;19.014;2023-05-08T15:02:00;2.58;;;1.70;;
18659;SDS011;9459;50.254;19.014;2023-05-08T15:04:29;3.40;;;1.80;;
18659;SDS011;9459;50.254;19.014;2023-05-08T15:06:57;3.72;;;1.90;;
18659;SDS011;9459;50.254;19.014;2023-05-08T15:09:27;5.40;;;2.35;;
18659;SDS011;9459;50.254;19.014;2023-05-08T15:11:55;3.88;;;2.10;;
18659;SDS011;9459;50.254;19.014;2023-05-08T15:14:24;3.05;;;2.22;;
18659;SDS011;9459;50.254;19.014;2023-05-08T15:16:52;4.13;;;1.80;;
18659;SDS011;9459;50.254;19.014;2023-05-08T15:19:21;3.35;;;2.22;;
18659;SDS011;9459;50.254;19.014;2023-05-08T15:21:49;4.95;;;2.28;;
18659;SDS011;9459;50.254;19.014;2023-05-08T15:24:18;4.82;;;1.90;;
18659;SDS011;9459;50.254;19.014;2023-05-08T15:26:48;4.22;;;2.80;;
18659;SDS011;9459;50.254;19.014;2023-05-08T15:29:17;3.22;;;2.70;;
18659;SDS011;9459;50.254;19.014;2023-05-08T15:31:46;5.10;;;2.03;;
18659;SDS011;9459;50.254;19.014;2023-05-08T15:34:15;6.03;;;2.58;;
18659;SDS011;9459;50.254;19.014;2023-05-08T15:36:44;3.33;;;1.80;;
18659;SDS011;9459;50.254;19.014;2023-05-08T15:39:13;3.10;;;2.60;;